Time;durP1;ratioP1;P1;durP2;ratioP2;P2;SDS_P1;SDS_P2;PMS_P1;PMS_P2;Temp;Humidity;BMP_temperature;BMP_pressure;BME280_temperature;BME280_humidity;BME280_pressure;Samples;Min_cycle;Max_cycle;Signal;HPM_P1;HPM_P2
2021/08/05 00:00:45;;;;;;;26.23;17.20;;;;;;;17.83;71.02;100871.78;5093792;28;20048;-75
2021/08/05 00:03:12;;;;;;;26.15;17.02;;;;;;;17.87;70.79;100866.88;5094086;28;20123;-75
2021/08/05 00:05:40;;;;;;;26.45;17.92;;;;;;;17.83;71.16;100869.91;5091688;28;20071;-75
2021/08/05 00:08:07;;;;;;;27.00;17.00;;;;;;;17.83;71.49;100866.41;5094087;28;20052;-75
2021/08/05 00:10:34;;;;;;;29.90;17.15;;;;;;;17.81;71.74;100860.41;5091870;28;20036;-75
2021/08/05 00:13:00;;;;;;;24.30;15.48;;;;;;;17.74;71.76;100857.69;5093484;28;20047;-74
2021/08/05 00:15:27;;;;;;;24.63;13.52;;;;;;;17.78;71.30;100858.94;5092493;28;20046;-74
2021/08/05 00:17:54;;;;;;;23.90;12.77;;;;;;;17.76;71.31;100860.19;5093610;28;20098;-74
2021/08/05 00:20:21;;;;;;;17.95;12.52;;;;;;;17.74;71.29;100857.69;5093494;28;20047;-74
2021/08/05 00:22:48;;;;;;;18.75;11.48;;;;;;;17.70;71.00;100853.75;5093511;28;20040;-74
2021/08/05 00:25:15;;;;;;;19.33;11.43;;;;;;;17.70;71.49;100860.94;5093097;28;20048;-74
2021/08/05 00:27:42;;;;;;;16.45;10.25;;;;;;;17.70;71.51;100863.63;5092983;28;20512;-74
2021/08/05 00:30:10;;;;;;;19.45;10.15;;;;;;;17.67;71.51;100856.81;5093286;28;20366;-74
2021/08/05 00:32:37;;;;;;;15.00;9.55;;;;;;;17.69;71.66;100860.13;5093657;28;20131;-74
2021/08/05 00:35:05;;;;;;;20.25;10.25;;;;;;;17.66;71.49;100857.84;5091305;28;20047;-74
2021/08/05 00:37:33;;;;;;;21.92;11.15;;;;;;;17.63;71.47;100859.06;5109127;28;20090;-74
2021/08/05 00:40:00;;;;;;;21.23;12.63;;;;;;;17.63;71.69;100860.94;5091730;28;20044;-74
2021/08/05 00:42:27;;;;;;;19.23;12.20;;;;;;;17.62;72.29;100854.72;5091941;28;20044;-74
2021/08/05 00:44:54;;;;;;;20.27;13.07;;;;;;;17.73;72.06;100849.84;5108767;28;20067;-74
2021/08/05 00:47:20;;;;;;;22.50;14.10;;;;;;;17.65;72.53;100840.94;5093351;28;20569;-74
2021/08/05 00:49:47;;;;;;;24.02;15.43;;;;;;;17.63;72.59;100842.16;5091432;28;20064;-74
2021/08/05 00:52:14;;;;;;;28.38;16.33;;;;;;;17.53;72.67;100842.50;5092211;28;20052;-74
2021/08/05 00:54:41;;;;;;;28.15;17.52;;;;;;;17.45;73.17;100831.94;5093285;28;20048;-74
2021/08/05 00:57:08;;;;;;;25.73;17.52;;;;;;;17.46;73.39;100842.47;5091573;28;20055;-73
2021/08/05 00:59:35;;;;;;;30.92;17.85;;;;;;;17.48;73.85;100839.56;5092814;28;20032;-74
2021/08/05 01:02:09;;;;;;;25.38;17.33;;;;;;;17.45;73.94;100835.44;5093147;28;20067;-74
2021/08/05 01:04:37;;;;;;;29.77;17.63;;;;;;;17.42;73.83;100835.84;5092681;28;20040;-74
2021/08/05 01:07:26;;;;;;;24.33;17.17;;;;;;;17.36;73.99;100825.91;5091340;28;20044;-74
2021/08/05 01:10:14;;;;;;;32.40;18.40;;;;;;;17.45;74.19;100829.25;5091312;28;20047;-74
2021/08/05 01:13:04;;;;;;;30.15;18.48;;;;;;;17.43;73.75;100825.97;5077769;28;20408;-74
2021/08/05 01:15:31;;;;;;;32.03;21.23;;;;;;;17.40;74.14;100823.66;5072751;28;20051;-74
2021/08/05 01:18:02;;;;;;;33.03;21.92;;;;;;;17.35;74.37;100820.72;5092477;28;20093;-74
2021/08/05 01:20:31;;;;;;;37.88;23.58;;;;;;;17.42;74.56;100832.34;5092451;28;20455;-74
2021/08/05 01:23:18;;;;;;;35.63;24.25;;;;;;;17.35;74.47;100815.38;5108157;28;20040;-74
2021/08/05 01:25:52;;;;;;;36.50;24.30;;;;;;;17.37;74.56;100807.97;5091211;28;20040;-74
2021/08/05 01:28:19;;;;;;;38.70;26.70;;;;;;;17.45;74.28;100823.91;5095256;28;20071;-74
2021/08/05 01:30:49;;;;;;;40.90;26.98;;;;;;;17.41;74.42;100820.78;5112749;28;20044;-74
2021/08/05 01:33:19;;;;;;;41.85;26.73;;;;;;;17.42;74.55;100818.91;5111398;28;20100;-74
2021/08/05 01:35:49;;;;;;;43.60;26.75;;;;;;;17.32;74.91;100816.59;5112947;28;20036;-74
2021/08/05 01:38:17;;;;;;;39.47;27.52;;;;;;;17.30;75.09;100815.97;5106348;28;20040;-73
2021/08/05 01:40:46;;;;;;;44.85;28.25;;;;;;;17.31;75.33;100814.94;5090899;28;20040;-76
2021/08/05 01:43:14;;;;;;;35.10;25.55;;;;;;;17.24;75.39;100822.94;5092609;28;20059;-75
2021/08/05 01:45:41;;;;;;;40.30;26.30;;;;;;;17.25;75.23;100821.09;5092003;28;20047;-75
2021/08/05 01:48:11;;;;;;;39.55;27.65;;;;;;;17.29;75.31;100810.81;5108047;28;20079;-75
2021/08/05 01:50:41;;;;;;;41.65;28.52;;;;;;;17.24;75.50;100806.03;5090913;28;20126;-74
2021/08/05 01:53:08;;;;;;;40.42;27.58;;;;;;;17.26;75.81;100803.97;5089075;28;20403;-75
2021/08/05 01:55:36;;;;;;;38.65;27.58;;;;;;;17.24;76.06;100803.34;5092368;28;20493;-75
2021/08/05 01:58:03;;;;;;;43.85;29.20;;;;;;;17.27;76.10;100806.47;5074335;28;20048;-75
2021/08/05 02:00:30;;;;;;;55.60;36.10;;;;;;;17.23;76.02;100805.19;5092402;28;20055;-75
2021/08/05 02:02:57;;;;;;;62.97;43.25;;;;;;;17.26;75.65;100812.88;5092377;28;20071;-75
2021/08/05 02:05:33;;;;;;;59.13;41.42;;;;;;;17.26;75.44;100807.50;5089848;28;20378;-75
2021/08/05 02:08:05;;;;;;;58.67;41.50;;;;;;;17.31;75.49;100812.25;5090647;28;20068;-75
2021/08/05 02:10:37;;;;;;;70.82;41.58;;;;;;;17.22;75.85;100810.75;5090991;28;20036;-75
2021/08/05 02:13:11;;;;;;;61.88;42.15;;;;;;;17.20;76.19;100804.75;5108050;28;20040;-75
2021/08/05 02:15:43;;;;;;;63.10;44.90;;;;;;;17.07;76.25;100798.28;5092155;28;20040;-75
2021/08/05 02:18:11;;;;;;;62.47;43.63;;;;;;;17.10;76.50;100799.75;5090439;28;20501;-75
2021/08/05 02:20:41;;;;;;;69.78;45.60;;;;;;;17.06;76.51;100785.94;5091883;28;20051;-75
2021/08/05 02:23:10;;;;;;;68.38;46.15;;;;;;;17.11;76.67;100788.00;5105390;28;20036;-75
2021/08/05 02:25:39;;;;;;;69.30;48.72;;;;;;;17.09;76.55;100787.38;5091871;28;20071;-75
2021/08/05 02:28:07;;;;;;;73.18;48.97;;;;;;;17.01;76.64;100774.97;5092221;28;20071;-75
2021/08/05 02:30:36;;;;;;;66.47;47.65;;;;;;;17.04;76.75;100781.75;5090479;28;20040;-75
2021/08/05 02:33:04;;;;;;;70.30;49.25;;;;;;;17.00;76.92;100780.50;5092117;28;20071;-75
2021/08/05 02:35:34;;;;;;;71.63;47.92;;;;;;;17.00;76.58;100778.66;5093260;28;20558;-75
2021/08/05 02:38:03;;;;;;;69.30;48.43;;;;;;;17.00;76.82;100778.66;5095602;28;20424;-76
2021/08/05 02:40:33;;;;;;;72.20;48.65;;;;;;;17.00;76.94;100772.47;5095596;28;20288;-75
2021/08/05 02:43:04;;;;;;;69.25;49.20;;;;;;;16.99;76.66;100774.31;5094406;28;20508;-76
2021/08/05 02:45:32;;;;;;;65.47;48.05;;;;;;;17.00;76.68;100773.28;5093533;28;20294;-75
2021/08/05 02:48:00;;;;;;;72.88;50.80;;;;;;;17.03;76.74;100766.72;5095755;28;20388;-76
2021/08/05 02:50:29;;;;;;;72.07;49.33;;;;;;;17.07;76.29;100776.03;5095073;28;20591;-75
2021/08/05 02:52:57;;;;;;;70.45;49.20;;;;;;;17.03;76.73;100777.44;5095566;28;20040;-76
2021/08/05 02:55:24;;;;;;;71.55;49.70;;;;;;;16.99;76.63;100779.69;5094141;28;20040;-75
2021/08/05 02:57:52;;;;;;;68.47;48.08;;;;;;;16.99;76.82;100778.84;5094710;28;20059;-75
2021/08/05 03:00:21;;;;;;;69.43;48.75;;;;;;;16.99;76.62;100779.69;5094235;28;20425;-75
2021/08/05 03:02:48;;;;;;;69.65;49.88;;;;;;;16.97;76.65;100776.38;5095386;28;20078;-75
2021/08/05 03:05:17;;;;;;;73.43;49.20;;;;;;;16.93;76.71;100769.72;5093750;28;20043;-75
2021/08/05 03:07:44;;;;;;;66.18;49.35;;;;;;;16.95;76.64;100774.91;5094887;28;20566;-75
2021/08/05 03:10:14;;;;;;;76.10;49.72;;;;;;;16.93;76.81;100774.28;5093779;28;20121;-75
2021/08/05 03:12:41;;;;;;;70.10;48.75;;;;;;;16.93;76.90;100774.28;5094854;28;20126;-75
2021/08/05 03:15:09;;;;;;;71.85;49.80;;;;;;;16.91;77.04;100774.47;5093901;28;20055;-75
2021/08/05 03:17:36;;;;;;;72.63;48.92;;;;;;;16.89;77.43;100773.84;5108870;28;20443;-75
2021/08/05 03:20:04;;;;;;;69.60;49.55;;;;;;;16.95;77.01;100769.53;5110128;28;20040;-75
2021/08/05 03:22:31;;;;;;;76.13;49.85;;;;;;;16.95;77.11;100767.69;5094834;28;20076;-75
2021/08/05 03:24:58;;;;;;;70.35;48.97;;;;;;;16.98;76.76;100775.34;5094475;28;20094;-75
2021/08/05 03:27:24;;;;;;;68.72;49.13;;;;;;;16.93;76.83;100764.38;5094280;28;20125;-75
2021/08/05 03:29:52;;;;;;;71.72;49.45;;;;;;;16.92;77.09;100768.09;5093391;28;20554;-75
2021/08/05 03:32:19;;;;;;;73.43;51.22;;;;;;;16.86;76.77;100758.13;5094764;28;20503;-75
2021/08/05 03:34:46;;;;;;;77.03;50.05;;;;;;;16.89;76.76;100769.28;5092314;28;20051;-75
2021/08/05 03:37:12;;;;;;;74.05;51.05;;;;;;;16.86;76.95;100758.13;5093257;28;20381;-75
2021/08/05 03:39:39;;;;;;;73.88;51.53;;;;;;;16.84;77.01;100762.88;5093012;28;20431;-75
2021/08/05 03:42:06;;;;;;;71.85;51.30;;;;;;;16.84;77.09;100762.88;5091638;28;20097;-75
2021/08/05 03:44:33;;;;;;;78.22;50.35;;;;;;;16.81;77.18;100758.72;5092942;28;20044;-75
2021/08/05 03:46:59;;;;;;;72.75;49.97;;;;;;;16.79;77.24;100755.41;5094154;28;20044;-75
2021/08/05 03:49:26;;;;;;;75.38;50.38;;;;;;;16.76;77.08;100749.59;5093562;28;20044;-75
2021/08/05 03:51:53;;;;;;;76.28;50.97;;;;;;;16.76;77.08;100745.06;5076122;28;20046;-75
2021/08/05 03:54:19;;;;;;;74.93;50.75;;;;;;;16.77;76.76;100748.56;5093181;28;20048;-75
2021/08/05 03:56:46;;;;;;;70.18;48.97;;;;;;;16.83;76.55;100751.34;5093903;28;20040;-75
2021/08/05 03:59:13;;;;;;;71.60;49.92;;;;;;;16.78;76.68;100752.91;5094097;28;20044;-75
2021/08/05 04:01:40;;;;;;;70.85;49.80;;;;;;;16.77;76.73;100745.88;5094344;28;20511;-75
2021/08/05 04:04:06;;;;;;;72.07;49.20;;;;;;;16.76;76.80;100753.09;5092797;28;20086;-75
2021/08/05 04:06:33;;;;;;;70.97;49.05;;;;;;;16.74;76.74;100747.13;5093332;28;20093;-75
2021/08/05 04:09:00;;;;;;;70.93;48.95;;;;;;;16.75;76.90;100753.28;5092442;28;20051;-75
2021/08/05 04:11:27;;;;;;;74.38;49.50;;;;;;;16.73;76.91;100752.66;5094670;28;20046;-75
2021/08/05 04:13:54;;;;;;;73.80;49.67;;;;;;;16.73;76.73;100747.31;5099398;28;20312;-75
2021/08/05 04:16:34;;;;;;;77.25;50.35;;;;;;;16.70;76.81;100746.66;5100395;28;20051;-75
2021/08/05 04:19:01;;;;;;;70.97;47.88;;;;;;;16.66;76.83;100744.56;5102652;28;20048;-75
2021/08/05 04:21:28;;;;;;;75.65;48.72;;;;;;;16.69;76.58;100746.88;5106642;28;20059;-76
2021/08/05 04:23:55;;;;;;;71.20;50.53;;;;;;;16.75;76.69;100742.56;5114016;28;20036;-75
2021/08/05 04:26:22;;;;;;;77.72;47.85;;;;;;;16.69;76.47;100741.50;5093448;28;20067;-75
2021/08/05 04:28:48;;;;;;;70.55;47.78;;;;;;;16.72;76.37;100743.81;5075848;28;20122;-75
2021/08/05 04:31:15;;;;;;;73.18;48.15;;;;;;;16.74;76.63;100749.78;5093992;28;20123;-75
2021/08/05 04:33:42;;;;;;;77.18;49.10;;;;;;;16.73;76.56;100750.81;5093163;28;20048;-75
2021/08/05 04:36:09;;;;;;;69.72;47.40;;;;;;;16.70;76.69;100749.34;5093806;28;20056;-75
2021/08/05 04:38:35;;;;;;;65.28;42.47;;;;;;;16.68;76.69;100745.19;5093356;28;20044;-75
2021/08/05 04:41:02;;;;;;;57.55;38.88;;;;;;;16.69;76.87;100753.03;5107536;28;20442;-75
2021/08/05 04:43:29;;;;;;;58.80;39.45;;;;;;;16.70;76.93;100753.88;5093439;28;20060;-75
2021/08/05 04:45:56;;;;;;;49.95;32.05;;;;;;;16.69;77.00;100745.00;5092891;28;20527;-75
2021/08/05 04:48:27;;;;;;;40.75;29.50;;;;;;;16.62;77.55;100743.31;5093059;28;20079;-75
2021/08/05 04:50:54;;;;;;;39.00;26.77;;;;;;;16.57;77.28;100735.88;5093072;28;20085;-75
2021/08/05 04:53:21;;;;;;;38.22;25.45;;;;;;;16.62;77.32;100741.44;5092211;28;20048;-75
2021/08/05 04:55:48;;;;;;;39.83;25.30;;;;;;;16.60;77.45;100732.78;5091935;28;20044;-75
2021/08/05 04:58:15;;;;;;;37.88;25.13;;;;;;;16.56;77.35;100733.38;5091130;28;20046;-76
2021/08/05 05:00:43;;;;;;;38.20;24.15;;;;;;;16.58;77.32;100734.00;5092560;28;20044;-75
2021/08/05 05:03:10;;;;;;;44.63;25.85;;;;;;;16.60;77.36;100732.78;5093283;28;20044;-75
2021/08/05 05:05:38;;;;;;;39.30;24.98;;;;;;;16.68;77.51;100731.81;5089611;28;20044;-75
2021/08/05 05:08:22;;;;;;;37.10;24.40;;;;;;;16.68;77.14;100727.28;5092725;28;20514;-75
2021/08/05 05:10:53;;;;;;;39.80;24.90;;;;;;;16.69;76.98;100725.44;5091806;28;20523;-75
2021/08/05 05:13:20;;;;;;;39.63;26.53;;;;;;;16.74;77.26;100717.66;5091543;28;20106;-75
2021/08/05 05:15:47;;;;;;;39.30;26.63;;;;;;;16.83;76.85;100721.03;5092698;28;20396;-75
2021/08/05 05:18:17;;;;;;;46.63;26.52;;;;;;;16.84;76.95;100722.69;5090912;28;20040;-75
2021/08/05 05:20:45;;;;;;;38.72;25.77;;;;;;;16.79;77.01;100725.09;5092674;28;20042;-75
2021/08/05 05:23:12;;;;;;;40.15;25.42;;;;;;;16.79;77.33;100719.72;5092685;28;20051;-75
2021/08/05 05:25:40;;;;;;;40.83;26.38;;;;;;;16.78;77.40;100723.44;5091036;28;20044;-75
2021/08/05 05:28:07;;;;;;;41.00;26.85;;;;;;;16.76;77.37;100725.50;5092175;28;20059;-75
2021/08/05 05:30:36;;;;;;;40.42;25.45;;;;;;;16.77;77.49;100725.31;5098924;28;20042;-75
2021/08/05 05:33:04;;;;;;;38.88;26.30;;;;;;;16.77;77.61;100729.81;5113179;28;20047;-75
2021/08/05 05:35:31;;;;;;;40.67;25.30;;;;;;;16.75;77.81;100719.28;5111172;28;20054;-75
2021/08/05 05:37:59;;;;;;;42.38;26.98;;;;;;;16.78;77.94;100718.91;5108660;28;20046;-75
2021/08/05 05:40:26;;;;;;;41.92;27.42;;;;;;;16.83;77.79;100726.41;5091174;28;20142;-75
2021/08/05 05:42:53;;;;;;;42.22;29.05;;;;;;;16.89;77.71;100729.09;5091163;28;20048;-75
2021/08/05 05:45:21;;;;;;;43.63;27.52;;;;;;;16.93;77.58;100726.03;5092153;28;20048;-75
2021/08/05 05:47:49;;;;;;;40.95;28.05;;;;;;;16.94;76.96;100719.69;5091197;28;20043;-75
2021/08/05 05:50:16;;;;;;;46.15;28.85;;;;;;;17.06;77.12;100718.94;5092623;28;20047;-75
2021/08/05 05:52:44;;;;;;;46.40;29.30;;;;;;;17.00;76.88;100724.25;5108037;28;20064;-75
2021/08/05 05:55:12;;;;;;;42.00;28.27;;;;;;;17.09;76.55;100720.38;5092256;28;20053;-75
2021/08/05 05:57:39;;;;;;;44.83;28.23;;;;;;;17.13;76.34;100716.25;5074535;28;20046;-75
2021/08/05 06:00:07;;;;;;;41.70;27.75;;;;;;;17.22;76.49;100728.47;5092222;28;20126;-75
2021/08/05 06:02:41;;;;;;;43.03;28.13;;;;;;;17.36;76.21;100721.34;5092673;28;20469;-75
2021/08/05 06:05:10;;;;;;;45.60;29.45;;;;;;;17.23;76.34;100732.81;5091674;28;20133;-75
2021/08/05 06:07:52;;;;;;;45.17;29.73;;;;;;;17.31;76.26;100725.66;5090258;28;20131;-76
2021/08/05 06:10:21;;;;;;;43.03;30.40;;;;;;;17.41;75.87;100728.81;5093650;28;20094;-75
2021/08/05 06:12:49;;;;;;;49.28;32.70;;;;;;;17.48;75.78;100724.25;5096106;28;20431;-75
2021/08/05 06:15:16;;;;;;;47.00;33.22;;;;;;;17.49;74.96;100725.13;5094860;28;20143;-75
2021/08/05 06:17:45;;;;;;;53.08;36.10;;;;;;;17.55;74.97;100735.84;5094758;28;20066;-75
2021/08/05 06:20:14;;;;;;;54.88;33.42;;;;;;;17.64;74.67;100739.19;5111222;28;20044;-76
2021/08/05 06:22:42;;;;;;;50.08;34.15;;;;;;;17.61;74.76;100737.75;5096227;28;20040;-75
2021/08/05 06:25:10;;;;;;;56.92;34.33;;;;;;;17.67;73.95;100732.63;5094704;28;20127;-75
2021/08/05 06:27:37;;;;;;;52.63;34.83;;;;;;;17.78;74.25;100738.22;5094139;28;20051;-75
2021/08/05 06:30:05;;;;;;;54.55;36.15;;;;;;;17.89;73.74;100734.16;5095850;28;20444;-75
2021/08/05 06:32:33;;;;;;;52.10;33.08;;;;;;;17.86;73.31;100733.72;5094521;28;20076;-75
2021/08/05 06:35:01;;;;;;;48.83;33.25;;;;;;;17.92;73.48;100739.13;5076063;28;20064;-75
2021/08/05 06:37:27;;;;;;;47.47;32.13;;;;;;;18.00;73.87;100740.78;5095496;28;20101;-76
2021/08/05 06:39:54;;;;;;;48.20;31.38;;;;;;;17.99;73.50;100737.28;5077279;28;20044;-75
2021/08/05 06:42:21;;;;;;;48.42;31.48;;;;;;;18.00;72.88;100730.88;5095510;28;20037;-75
2021/08/05 06:44:48;;;;;;;51.75;31.25;;;;;;;18.11;73.25;100731.31;5094180;28;20048;-75
2021/08/05 06:47:15;;;;;;;53.47;31.73;;;;;;;18.08;72.80;100729.88;5095568;28;20052;-75
2021/08/05 06:49:43;;;;;;;54.58;32.42;;;;;;;18.17;72.97;100736.69;5094246;28;20386;-75
2021/08/05 06:52:11;;;;;;;49.90;33.20;;;;;;;18.22;71.99;100736.88;5110943;28;20029;-75
2021/08/05 06:54:38;;;;;;;50.00;33.50;;;;;;;18.27;71.65;100738.97;5095750;28;20047;-75
2021/08/05 06:57:05;;;;;;;46.95;33.22;;;;;;;18.24;71.04;100736.69;5077310;28;20080;-75
2021/08/05 06:59:31;;;;;;;55.78;33.70;;;;;;;18.37;71.77;100738.56;5093589;28;20491;-75
2021/08/05 07:01:59;;;;;;;53.22;33.15;;;;;;;18.47;71.79;100743.53;5095033;28;20436;-75
2021/08/05 07:04:27;;;;;;;52.70;35.15;;;;;;;18.50;71.26;100737.72;5094921;28;20040;-75
2021/08/05 07:06:53;;;;;;;47.38;34.67;;;;;;;18.61;70.87;100737.13;5108823;28;20040;-75
2021/08/05 07:09:20;;;;;;;48.30;33.78;;;;;;;18.60;71.05;100738.16;5094916;28;20059;-75
2021/08/05 07:11:47;;;;;;;51.13;34.17;;;;;;;18.69;70.69;100738.78;5110365;28;20039;-76
2021/08/05 07:14:14;;;;;;;49.80;34.03;;;;;;;18.63;69.97;100737.75;5094659;28;20067;-75
2021/08/05 07:16:40;;;;;;;49.90;32.35;;;;;;;18.66;70.31;100740.00;5094953;28;20051;-75
2021/08/05 07:19:07;;;;;;;46.42;31.50;;;;;;;18.68;70.69;100743.34;5094826;28;20043;-75
2021/08/05 07:21:34;;;;;;;43.35;32.08;;;;;;;18.77;70.65;100736.72;5076395;28;20044;-74
2021/08/05 07:24:01;;;;;;;50.25;31.58;;;;;;;18.82;70.08;100738.78;5093626;28;20044;-75
2021/08/05 07:26:27;;;;;;;45.08;31.65;;;;;;;18.70;69.93;100735.03;5093995;28;20098;-68
2021/08/05 07:28:54;;;;;;;46.50;31.90;;;;;;;18.62;69.79;100736.09;5090463;28;20071;-68
2021/08/05 07:31:21;;;;;;;50.10;31.35;;;;;;;18.75;69.79;100737.94;5099192;28;20036;-68
2021/08/05 07:33:50;;;;;;;40.85;29.40;;;;;;;18.77;70.79;100734.03;5099964;28;20427;-68
2021/08/05 07:36:17;;;;;;;45.08;30.88;;;;;;;18.76;70.49;100734.22;5093374;28;20044;-68
2021/08/05 07:38:44;;;;;;;46.50;30.20;;;;;;;18.82;70.21;100733.41;5092388;28;20090;-68
2021/08/05 07:41:10;;;;;;;43.47;29.40;;;;;;;18.93;70.64;100737.34;5092916;28;20036;-67
2021/08/05 07:43:37;;;;;;;51.33;30.55;;;;;;;19.13;69.21;100742.66;5092664;28;20119;-73
2021/08/05 07:46:05;;;;;;;51.97;31.85;;;;;;;19.10;67.95;100735.00;5094205;28;20046;-73
2021/08/05 07:48:32;;;;;;;46.00;30.95;;;;;;;19.10;67.96;100735.00;5092721;28;20064;-73
2021/08/05 07:50:58;;;;;;;42.05;29.90;;;;;;;19.05;68.89;100738.34;5092881;28;20565;-73
2021/08/05 07:53:25;;;;;;;55.85;31.45;;;;;;;18.96;69.28;100731.53;5092587;28;20044;-73
2021/08/05 07:55:52;;;;;;;50.42;32.40;;;;;;;18.93;68.65;100730.09;5092143;28;20040;-73
2021/08/05 07:58:19;;;;;;;47.85;32.88;;;;;;;19.01;68.70;100721.00;5092429;28;20350;-73
2021/08/05 08:00:46;;;;;;;50.78;33.13;;;;;;;18.93;68.07;100719.34;5092038;28;20075;-73
2021/08/05 08:03:15;;;;;;;56.72;32.38;;;;;;;19.00;68.86;100722.03;5075581;28;20145;-72
2021/08/05 08:05:44;;;;;;;47.85;31.25;;;;;;;19.03;69.50;100718.91;5092193;28;20492;-72
2021/08/05 08:08:11;;;;;;;45.05;31.02;;;;;;;19.05;69.48;100714.16;5091130;28;20382;-72
2021/08/05 08:10:39;;;;;;;46.42;30.08;;;;;;;19.04;69.01;100706.28;5092759;28;20590;-73
2021/08/05 08:13:17;;;;;;;53.03;32.80;;;;;;;19.11;69.99;100713.31;5092269;28;20032;-73
2021/08/05 08:15:46;;;;;;;50.83;35.60;;;;;;;19.12;66.08;100709.59;5109028;28;20048;-72
2021/08/05 08:18:14;;;;;;;52.75;36.00;;;;;;;19.01;66.84;100709.41;5091894;28;20047;-73
2021/08/05 08:20:41;;;;;;;57.53;37.38;;;;;;;18.96;66.52;100712.72;5090824;28;20408;-73
2021/08/05 08:23:08;;;;;;;53.38;34.50;;;;;;;18.83;67.91;100713.59;5108854;28;20039;-72
2021/08/05 08:25:34;;;;;;;50.72;35.70;;;;;;;18.89;67.58;100699.28;5092999;28;20040;-72
2021/08/05 08:28:01;;;;;;;48.40;33.30;;;;;;;18.93;68.66;100699.69;5058072;28;20075;-72
2021/08/05 08:30:30;;;;;;;52.78;32.85;;;;;;;18.93;69.41;100700.53;5091678;28;20511;-73
2021/08/05 08:32:57;;;;;;;47.67;30.75;;;;;;;19.05;69.62;100707.97;5090925;28;20162;-72
2021/08/05 08:35:24;;;;;;;47.33;33.45;;;;;;;19.10;69.06;100698.22;5092052;28;20450;-73
2021/08/05 08:37:51;;;;;;;53.22;33.58;;;;;;;19.24;69.09;100704.38;5073028;28;20101;-72
2021/08/05 08:40:18;;;;;;;44.78;32.65;;;;;;;19.34;68.41;100702.06;5092218;28;20504;-72
2021/08/05 08:42:45;;;;;;;47.25;31.38;;;;;;;19.38;68.12;100699.78;5108232;28;20161;-73
2021/08/05 08:45:14;;;;;;;47.45;33.25;;;;;;;19.34;67.80;100701.25;5084467;28;20067;-73
2021/08/05 08:47:44;;;;;;;50.47;34.78;;;;;;;19.30;67.38;100691.94;5105353;28;20036;-72
2021/08/05 08:50:15;;;;;;;49.13;32.70;;;;;;;19.34;67.56;100685.94;5089218;28;20040;-72
2021/08/05 08:52:44;;;;;;;53.78;34.22;;;;;;;19.35;67.80;100689.44;5091251;28;20505;-72
2021/08/05 08:55:12;;;;;;;47.92;34.03;;;;;;;19.37;68.08;100688.19;5092634;28;20143;-72
2021/08/05 08:57:39;;;;;;;51.22;33.63;;;;;;;19.43;67.65;100696.44;5101058;28;20048;-72
2021/08/05 09:00:08;;;;;;;51.65;36.13;;;;;;;19.39;67.03;100685.28;5086071;28;20063;-72
2021/08/05 09:02:35;;;;;;;52.53;35.10;;;;;;;19.40;67.33;100680.75;5103307;28;20050;-72
2021/08/05 09:05:05;;;;;;;52.90;33.72;;;;;;;19.45;67.14;100676.38;5091451;28;20036;-73
2021/08/05 09:07:34;;;;;;;50.05;32.95;;;;;;;19.52;67.88;100682.53;5090309;28;20082;-72
2021/08/05 09:10:01;;;;;;;51.00;34.83;;;;;;;19.42;65.92;100674.09;5105687;28;20047;-72
2021/08/05 09:12:27;;;;;;;53.35;34.72;;;;;;;19.53;64.51;100683.34;5071846;28;20071;-72
2021/08/05 09:14:54;;;;;;;53.10;34.67;;;;;;;19.55;65.81;100682.13;5086688;28;20050;-73
2021/08/05 09:17:27;;;;;;;54.95;37.33;;;;;;;19.67;64.88;100679.56;5092361;28;20389;-72
2021/08/05 09:19:58;;;;;;;51.85;34.75;;;;;;;19.71;66.31;100679.94;5090876;28;20130;-72
2021/08/05 09:22:31;;;;;;;51.22;34.58;;;;;;;19.70;66.33;100689.06;5092803;28;20078;-73
2021/08/05 09:24:58;;;;;;;48.42;35.55;;;;;;;19.80;64.66;100677.88;5095482;28;20126;-72
2021/08/05 09:27:31;;;;;;;54.30;33.97;;;;;;;19.84;65.30;100681.78;5091235;28;20048;-73
2021/08/05 09:29:59;;;;;;;50.20;34.88;;;;;;;19.96;65.92;100677.34;5095270;28;20125;-72
2021/08/05 09:32:28;;;;;;;51.97;34.38;;;;;;;19.99;65.23;100676.88;5099771;28;20068;-72
2021/08/05 09:35:10;;;;;;;57.88;38.60;;;;;;;20.04;64.47;100677.06;5101081;28;20077;-72
2021/08/05 09:37:39;;;;;;;51.42;35.65;;;;;;;19.79;66.02;100676.22;5092129;28;20515;-73
2021/08/05 09:40:14;;;;;;;52.83;36.83;;;;;;;19.89;66.43;100663.09;5089919;28;20043;-73
2021/08/05 09:42:53;;;;;;;48.53;33.53;;;;;;;19.95;66.57;100673.00;5090355;28;20493;-73
2021/08/05 09:45:33;;;;;;;47.15;32.13;;;;;;;20.00;67.20;100670.47;5100965;28;20082;-72
2021/08/05 09:48:00;;;;;;;51.50;33.13;;;;;;;20.07;66.89;100670.44;5085837;28;20036;-73
2021/08/05 09:50:28;;;;;;;49.50;32.38;;;;;;;20.18;66.84;100671.59;5091429;28;20249;-73
2021/08/05 09:53:11;;;;;;;51.20;32.70;;;;;;;20.28;66.69;100667.38;5095737;28;20036;-73
2021/08/05 09:55:41;;;;;;;47.90;33.38;;;;;;;20.28;65.14;100675.47;5096098;28;20044;-73
2021/08/05 09:58:08;;;;;;;47.20;33.10;;;;;;;20.36;64.95;100670.84;5094648;28;20040;-73
2021/08/05 10:00:51;;;;;;;48.05;33.28;;;;;;;20.43;64.43;100661.66;5094177;28;20036;-69
2021/08/05 10:03:34;;;;;;;52.30;32.47;;;;;;;20.54;64.17;100670.88;5097292;28;20444;-69
2021/08/05 10:06:03;;;;;;;48.70;34.00;;;;;;;20.57;63.70;100662.31;5095642;28;20043;-69
2021/08/05 10:08:38;;;;;;;52.75;33.95;;;;;;;20.67;61.88;100659.16;5093978;28;20097;-69
2021/08/05 10:11:08;;;;;;;49.65;35.17;;;;;;;20.63;62.34;100647.16;5075144;28;20041;-68
2021/08/05 10:13:38;;;;;;;47.83;33.70;;;;;;;21.07;59.31;100645.25;5091983;28;20036;-69
2021/08/05 10:16:08;;;;;;;52.95;35.95;;;;;;;21.09;56.91;100643.16;5113444;28;20058;-69
2021/08/05 10:18:38;;;;;;;48.27;35.10;;;;;;;21.25;57.64;100641.72;5100145;28;20062;-69
2021/08/05 10:21:07;;;;;;;47.85;32.65;;;;;;;21.66;57.51;100623.94;5093652;28;20039;-69
2021/08/05 10:23:37;;;;;;;56.13;34.20;;;;;;;21.89;56.00;100633.97;5079476;28;20122;-69
2021/08/05 10:26:07;;;;;;;55.55;33.20;;;;;;;22.00;55.90;100630.47;5114751;28;20048;-69
2021/08/05 10:28:34;;;;;;;43.40;30.52;;;;;;;22.28;55.60;100626.28;5095331;28;20047;-69
2021/08/05 10:31:05;;;;;;;45.33;30.73;;;;;;;22.23;53.88;100621.59;5095700;28;20046;-69
2021/08/05 10:33:32;;;;;;;36.80;22.80;;;;;;;22.59;51.66;100619.72;5093526;28;20523;-69
2021/08/05 10:36:01;;;;;;;34.28;22.73;;;;;;;22.83;51.73;100624.25;5093102;28;20094;-69
2021/08/05 10:38:28;;;;;;;34.15;24.35;;;;;;;22.81;50.19;100619.09;5098062;28;20896;-69
2021/08/05 10:40:56;;;;;;;29.45;21.83;;;;;;;22.92;50.60;100607.44;5094260;28;20052;-69
2021/08/05 10:43:23;;;;;;;28.63;20.67;;;;;;;22.81;50.31;100609.13;5115067;28;20032;-69
2021/08/05 10:45:51;;;;;;;24.80;17.25;;;;;;;22.99;51.12;100605.44;5114063;28;20047;-69
2021/08/05 10:48:18;;;;;;;26.90;17.38;;;;;;;23.03;49.90;100596.81;5099985;28;20040;-69
2021/08/05 10:50:47;;;;;;;24.20;15.57;;;;;;;23.14;50.45;100595.97;5102874;28;20051;-69
2021/08/05 10:53:42;;;;;;;23.70;15.30;;;;;;;23.25;52.14;100594.28;5097323;28;20115;-69
2021/08/05 10:56:30;;;;;;;23.73;13.75;;;;;;;23.44;49.96;100586.81;5093907;28;20128;-69
2021/08/05 10:59:15;;;;;;;20.65;12.60;;;;;;;23.75;49.19;100594.38;5094545;28;20064;-69
2021/08/05 11:01:47;;;;;;;23.95;15.13;;;;;;;23.46;48.73;100576.56;5094596;28;20040;-69
2021/08/05 11:07:29;;;;;;;20.65;10.95;;;;;;;23.90;48.44;100580.31;5190910;27;20382;-68
2021/08/05 11:10:19;;;;;;;18.52;10.60;;;;;;;23.94;45.55;100581.47;5171714;27;20060;-73
2021/08/05 11:12:49;;;;;;;19.40;11.85;;;;;;;24.12;46.66;100572.25;5167256;27;20070;-73
2021/08/05 11:18:17;;;;;;;16.63;8.90;;;;;;;24.18;47.88;100572.34;5088859;27;20381;-74
2021/08/05 11:26:08;;;;;;;12.18;6.55;;;;;;;24.20;44.96;100567.47;5109760;27;20384;-72
2021/08/05 11:28:52;;;;;;;11.05;6.13;;;;;;;24.38;45.67;100574.50;5109623;28;20565;-73